Taisho Maru — JI3307 — position and weather

sailwx.info

Track history (hours):
 
Tides and Currents Weather Stations Pressure Air Temp Water Temp Dewpoint Dewpoint Depression Visibility Wind Speed Wind Dir Waves Ship Positions

Taisho Maru

Last reported at 2015-Mar-05 14:17 UTC. Time now 2015-Mar-06 02:49 UTC.
Position N 34°41' E 134°41'.

Length 93 m; draft 4.7 m.

Type: Cargo ship. MMSI: 431300084.

Date/timePositionNaut miles runAvg speedWind from/ knotsBaromVisibWave heightAir tempDewpointWater temp
2015-Mar-05 14:17N 34°41' E 134°41'1013.5
2015-Mar-05 13:33N 34°38' E 134°52'1212.0
2015-Mar-05 12:33N 34°32' E 135°05'1514.0
2015-Mar-05 11:30N 34°18' E 134°60'1212.8
2015-Mar-05 10:33N 34°07' E 135°07'0 0.0
2015-Mar-05 01:33N 34°07' E 135°07'11 0.4
2015-Mar-03 21:31N 33°59' E 134°58'1212.5
2015-Mar-03 20:34N 34°09' E 135°05'4 3.8
2015-Mar-03 19:33N 34°10' E 135°09'0 0.0
2015-Mar-03 18:33N 34°10' E 135°09'0 0.0
2015-Mar-03 17:33N 34°10' E 135°09'0 0.0
2015-Mar-03 16:33N 34°10' E 135°09'0 0.0
2015-Mar-03 15:33N 34°10' E 135°09'6 6.2
2015-Mar-03 14:33N 34°07' E 135°03'7 0.3
2015-Mar-02 15:33N 33°60' E 135°02'10 9.3
2015-Mar-02 14:32N 34°08' E 135°07'0 0.0
2015-Mar-02 13:32N 34°08' E 135°07'0 0.0
2015-Mar-02 12:32N 34°08' E 135°07'0 0.0
2015-Mar-02 11:29N 34°08' E 135°07'0 0.1
2015-Mar-02 10:29N 34°08' E 135°07'0 0.0
2015-Mar-02 09:26N 34°08' E 135°07'0 0.1
2015-Mar-02 08:33N 34°08' E 135°07'1 0.3
2015-Mar-02 04:33N 34°07' E 135°07'6 6.5
2015-Mar-02 03:33N 34°14' E 135°08'0 0.1
2015-Mar-02 02:33N 34°14' E 135°08'0 0.0
2015-Mar-02 01:33N 34°14' E 135°08'0 0.0
2015-Mar-02 00:33N 34°14' E 135°08'0 0.0
2015-Mar-01 23:33N 34°14' E 135°08'0 0.0
2015-Mar-01 22:33N 34°14' E 135°08'0 0.0
2015-Mar-01 21:33N 34°14' E 135°08'0 0.0
2015-Mar-01 20:33N 34°14' E 135°08'0 0.0
2015-Mar-01 19:33N 34°14' E 135°08'0 0.0
2015-Mar-01 18:33N 34°14' E 135°08'0 0.0
2015-Mar-01 17:33N 34°14' E 135°08'0 0.0
2015-Mar-01 16:33N 34°14' E 135°08'0 0.0
2015-Mar-01 15:33N 34°14' E 135°08'0 0.0
2015-Mar-01 14:33N 34°14' E 135°08'0 0.0
2015-Mar-01 13:33N 34°14' E 135°08'6 5.8
2015-Mar-01 12:33N 34°15' E 135°01'1211.8
2015-Mar-01 11:33N 34°27' E 135°01'1010.1
2015-Mar-01 10:32N 34°37' E 134°59'16 0.9
2015-Feb-28 17:32N 34°41' E 134°41'1414.2
2015-Feb-28 16:34N 34°37' E 134°57'10 9.7
2015-Feb-28 15:33N 34°30' E 135°04'1413.8
2015-Feb-28 14:33N 34°16' E 134°59'1413.4
2015-Feb-28 13:32N 34°03' E 134°59'22711.3
2015-Feb-27 17:24N 34°56' E 139°27'1213.5
2015-Feb-27 16:33N 35°03' E 139°38'1313.2
2015-Feb-27 15:33N 35°15' E 139°46'1111.2
2015-Feb-27 14:33N 35°26' E 139°45'1010.1
2015-Feb-27 13:33N 35°30' E 139°57'0 0.1
2015-Feb-27 12:21N 35°30' E 139°57'0 0.1
2015-Feb-27 11:27N 35°30' E 139°57'0 0.0
2015-Feb-27 10:24N 35°30' E 139°57'0 0.0
2015-Feb-27 09:30N 35°30' E 139°57'0 0.1
2015-Feb-27 08:33N 35°30' E 139°57'0 0.0
2015-Feb-27 07:15N 35°30' E 139°57'0 0.1
2015-Feb-27 06:24N 35°30' E 139°57'0 0.0
2015-Feb-27 05:30N 35°30' E 139°57'0 0.0
2015-Feb-27 04:30N 35°30' E 139°57'0 0.0
2015-Feb-27 03:33N 35°30' E 139°57'0 0.0
2015-Feb-27 02:33N 35°30' E 139°57'0 0.0
2015-Feb-27 01:33N 35°30' E 139°57'0 0.1
2015-Feb-27 00:33N 35°30' E 139°57'0 0.1
2015-Feb-26 23:33N 35°30' E 139°57'2 0.1
2015-Feb-26 03:31N 35°29' E 139°59'1010.7
2015-Feb-26 02:34N 35°25' E 139°47'1010.2
2015-Feb-26 01:33N 35°15' E 139°47'1211.9
2015-Feb-26 00:34N 35°03' E 139°43'  
Track history (hours):
 
Tides and Currents Weather Stations Pressure Air Temp Water Temp Dewpoint Dewpoint Depression Visibility Wind Speed Wind Dir Waves Ship Positions

Taisho Maru

Last reported at 2015-Mar-05 14:17 UTC. Time now 2015-Mar-06 02:49 UTC.
Position N 34°41' E 134°41'.

Length 93 m; draft 4.7 m.

Type: Cargo ship. MMSI: 431300084.

Date/timePositionNaut miles runAvg speedWind from/ knotsBaromVisibWave heightAir tempDewpointWater temp
2015-Mar-05 14:17N 34°41' E 134°41'1013.5
2015-Mar-05 13:33N 34°38' E 134°52'1212.0
2015-Mar-05 12:33N 34°32' E 135°05'1514.0
2015-Mar-05 11:30N 34°18' E 134°60'1212.8
2015-Mar-05 10:33N 34°07' E 135°07'0 0.0
2015-Mar-05 01:33N 34°07' E 135°07'11 0.4
2015-Mar-03 21:31N 33°59' E 134°58'1212.5
2015-Mar-03 20:34N 34°09' E 135°05'4 3.8
2015-Mar-03 19:33N 34°10' E 135°09'0 0.0
2015-Mar-03 18:33N 34°10' E 135°09'0 0.0
2015-Mar-03 17:33N 34°10' E 135°09'0 0.0
2015-Mar-03 16:33N 34°10' E 135°09'0 0.0
2015-Mar-03 15:33N 34°10' E 135°09'6 6.2
2015-Mar-03 14:33N 34°07' E 135°03'7 0.3
2015-Mar-02 15:33N 33°60' E 135°02'10 9.3
2015-Mar-02 14:32N 34°08' E 135°07'0 0.0
2015-Mar-02 13:32N 34°08' E 135°07'0 0.0
2015-Mar-02 12:32N 34°08' E 135°07'0 0.0
2015-Mar-02 11:29N 34°08' E 135°07'0 0.1
2015-Mar-02 10:29N 34°08' E 135°07'0 0.0
2015-Mar-02 09:26N 34°08' E 135°07'0 0.1
2015-Mar-02 08:33N 34°08' E 135°07'1 0.3
2015-Mar-02 04:33N 34°07' E 135°07'6 6.5
2015-Mar-02 03:33N 34°14' E 135°08'0 0.1
2015-Mar-02 02:33N 34°14' E 135°08'0 0.0
2015-Mar-02 01:33N 34°14' E 135°08'0 0.0
2015-Mar-02 00:33N 34°14' E 135°08'0 0.0
2015-Mar-01 23:33N 34°14' E 135°08'0 0.0
2015-Mar-01 22:33N 34°14' E 135°08'0 0.0
2015-Mar-01 21:33N 34°14' E 135°08'0 0.0
2015-Mar-01 20:33N 34°14' E 135°08'0 0.0
2015-Mar-01 19:33N 34°14' E 135°08'0 0.0
2015-Mar-01 18:33N 34°14' E 135°08'0 0.0
2015-Mar-01 17:33N 34°14' E 135°08'0 0.0
2015-Mar-01 16:33N 34°14' E 135°08'0 0.0
2015-Mar-01 15:33N 34°14' E 135°08'0 0.0
2015-Mar-01 14:33N 34°14' E 135°08'0 0.0
2015-Mar-01 13:33N 34°14' E 135°08'6 5.8
2015-Mar-01 12:33N 34°15' E 135°01'1211.8
2015-Mar-01 11:33N 34°27' E 135°01'1010.1
2015-Mar-01 10:32N 34°37' E 134°59'16 0.9
2015-Feb-28 17:32N 34°41' E 134°41'1414.2
2015-Feb-28 16:34N 34°37' E 134°57'10 9.7
2015-Feb-28 15:33N 34°30' E 135°04'1413.8
2015-Feb-28 14:33N 34°16' E 134°59'1413.4
2015-Feb-28 13:32N 34°03' E 134°59'22711.3
2015-Feb-27 17:24N 34°56' E 139°27'1213.5
2015-Feb-27 16:33N 35°03' E 139°38'1313.2
2015-Feb-27 15:33N 35°15' E 139°46'1111.2
2015-Feb-27 14:33N 35°26' E 139°45'1010.1
2015-Feb-27 13:33N 35°30' E 139°57'0 0.1
2015-Feb-27 12:21N 35°30' E 139°57'0 0.1
2015-Feb-27 11:27N 35°30' E 139°57'0 0.0
2015-Feb-27 10:24N 35°30' E 139°57'0 0.0
2015-Feb-27 09:30N 35°30' E 139°57'0 0.1
2015-Feb-27 08:33N 35°30' E 139°57'0 0.0
2015-Feb-27 07:15N 35°30' E 139°57'0 0.1
2015-Feb-27 06:24N 35°30' E 139°57'0 0.0
2015-Feb-27 05:30N 35°30' E 139°57'0 0.0
2015-Feb-27 04:30N 35°30' E 139°57'0 0.0
2015-Feb-27 03:33N 35°30' E 139°57'0 0.0
2015-Feb-27 02:33N 35°30' E 139°57'0 0.0
2015-Feb-27 01:33N 35°30' E 139°57'0 0.1
2015-Feb-27 00:33N 35°30' E 139°57'0 0.1
2015-Feb-26 23:33N 35°30' E 139°57'2 0.1
2015-Feb-26 03:31N 35°29' E 139°59'1010.7
2015-Feb-26 02:34N 35°25' E 139°47'1010.2
2015-Feb-26 01:33N 35°15' E 139°47'1211.9
2015-Feb-26 00:34N 35°03' E 139°43'  

Dump ship's entire track history